createdAt,value
2023-11-23T00:00:10.372Z,2.40
2023-11-23T00:02:39.347Z,2.97
2023-11-23T00:05:09.814Z,3.28
2023-11-23T00:07:39.054Z,2.05
2023-11-23T00:10:08.089Z,3.13
2023-11-23T00:12:36.801Z,3.53
2023-11-23T00:15:05.087Z,2.38
2023-11-23T00:17:33.137Z,3.17
2023-11-23T00:20:00.898Z,5.85
2023-11-23T00:22:29.973Z,2.20
2023-11-23T00:24:58.980Z,4.25
2023-11-23T00:27:28.745Z,3.17
2023-11-23T00:29:56.401Z,4.85
2023-11-23T00:32:23.876Z,2.95
2023-11-23T00:34:52.264Z,3.08
2023-11-23T00:37:20.113Z,5.32
2023-11-23T00:39:49.015Z,2.35
2023-11-23T00:42:16.553Z,2.70
2023-11-23T00:44:44.131Z,5.50
2023-11-23T00:47:12.957Z,3.63
2023-11-23T00:49:41.355Z,4.88
2023-11-23T00:52:08.939Z,3.60
2023-11-23T00:54:39.882Z,3.22
2023-11-23T00:57:11.167Z,4.47
2023-11-23T00:59:38.815Z,1.83
2023-11-23T01:02:06.909Z,2.58
2023-11-23T01:04:35.244Z,3.28
2023-11-23T01:07:02.881Z,3.30
2023-11-23T01:09:30.391Z,3.88
2023-11-23T01:11:59.734Z,3.78
2023-11-23T01:14:29.336Z,2.65
2023-11-23T01:16:56.840Z,4.78
2023-11-23T01:19:24.348Z,2.10
2023-11-23T01:21:51.820Z,2.85
2023-11-23T01:24:19.369Z,4.43
2023-11-23T01:26:46.944Z,3.38
2023-11-23T01:29:14.995Z,4.78
2023-11-23T01:31:43.817Z,2.50
2023-11-23T01:34:11.472Z,4.78
2023-11-23T01:36:39.284Z,3.20
2023-11-23T01:39:08.377Z,6.97
2023-11-23T01:41:36.210Z,3.72
2023-11-23T01:44:03.744Z,1.08
2023-11-23T01:46:32.718Z,3.60
2023-11-23T01:49:04.337Z,4.13
2023-11-23T01:51:34.339Z,2.17
2023-11-23T01:54:01.979Z,5.80
2023-11-23T01:56:31.815Z,3.70
2023-11-23T01:59:00.491Z,2.17
2023-11-23T02:01:28.082Z,4.38
2023-11-23T02:03:56.052Z,4.10
2023-11-23T02:06:24.926Z,2.60
2023-11-23T02:08:54.837Z,3.97
2023-11-23T02:11:29.980Z,0.77
2023-11-23T02:14:00.563Z,1.25
2023-11-23T02:16:28.407Z,2.13
2023-11-23T02:18:58.475Z,1.75
2023-11-23T02:21:28.576Z,1.30
2023-11-23T02:23:56.155Z,2.65
2023-11-23T02:26:25.194Z,3.38
2023-11-23T02:28:53.125Z,0.60
2023-11-23T02:31:20.756Z,1.92
2023-11-23T02:33:48.275Z,2.42
2023-11-23T02:36:15.858Z,0.22
2023-11-23T02:38:43.414Z,1.98
2023-11-23T02:41:10.926Z,1.50
2023-11-23T02:43:39.821Z,2.55
2023-11-23T02:46:07.446Z,3.63
2023-11-23T02:48:36.764Z,1.85
2023-11-23T02:51:04.538Z,5.03
2023-11-23T02:53:33.966Z,7.47
2023-11-23T02:56:01.525Z,8.75
2023-11-23T02:58:30.846Z,4.75
2023-11-23T03:00:59.740Z,1.25
2023-11-23T03:03:27.422Z,8.90
2023-11-23T03:05:55.730Z,4.68
2023-11-23T03:08:23.236Z,5.82
2023-11-23T03:10:50.692Z,3.70
2023-11-23T03:13:19.786Z,3.53
2023-11-23T03:15:47.253Z,7.68
2023-11-23T03:18:16.130Z,5.22
2023-11-23T03:20:43.931Z,4.07
2023-11-23T03:23:11.439Z,2.25
2023-11-23T03:25:39.589Z,5.32
2023-11-23T03:28:08.299Z,3.35
2023-11-23T03:30:36.830Z,6.18
2023-11-23T03:33:04.675Z,5.85
2023-11-23T03:35:33.508Z,6.05
2023-11-23T03:38:01.060Z,5.13
2023-11-23T03:40:28.534Z,7.93
2023-11-23T03:42:56.920Z,6.40
2023-11-23T03:45:26.924Z,5.93
2023-11-23T03:47:54.622Z,9.95
2023-11-23T03:50:22.527Z,6.57
2023-11-23T03:52:51.343Z,9.73
2023-11-23T03:55:18.853Z,3.10
2023-11-23T03:57:47.777Z,6.78
2023-11-23T04:00:16.830Z,7.40
2023-11-23T04:02:44.705Z,4.75
2023-11-23T04:05:13.265Z,3.22
2023-11-23T04:07:40.789Z,4.10
2023-11-23T04:10:11.572Z,1.30
2023-11-23T04:12:39.142Z,5.20
2023-11-23T04:15:07.644Z,9.52
2023-11-23T04:17:35.405Z,6.45
2023-11-23T04:20:03.032Z,0.60
2023-11-23T04:22:30.554Z,6.03
2023-11-23T04:24:58.203Z,8.68
2023-11-23T04:27:27.062Z,8.43
2023-11-23T04:29:55.776Z,5.93
2023-11-23T04:32:23.697Z,2.55
2023-11-23T04:34:51.179Z,4.38
2023-11-23T04:37:24.805Z,3.33
2023-11-23T04:39:53.067Z,6.63
2023-11-23T04:42:23.301Z,6.13
2023-11-23T04:44:52.168Z,3.40
2023-11-23T04:47:19.805Z,9.63
2023-11-23T04:49:47.264Z,5.78
2023-11-23T04:52:14.768Z,6.35
2023-11-23T04:54:42.257Z,8.73
2023-11-23T04:57:09.903Z,6.82
2023-11-23T04:59:37.989Z,4.10
2023-11-23T05:02:07.968Z,1.40
2023-11-23T05:04:35.485Z,6.53
2023-11-23T05:07:03.010Z,9.00
2023-11-23T05:09:30.527Z,6.30
2023-11-23T05:11:59.854Z,9.30
2023-11-23T05:14:27.416Z,3.47
2023-11-23T05:16:55.048Z,1.95
2023-11-23T05:19:35.664Z,3.80
2023-11-23T05:22:09.510Z,7.88
2023-11-23T05:24:37.098Z,5.25
2023-11-23T05:27:05.036Z,4.22
2023-11-23T05:29:32.521Z,5.68
2023-11-23T05:32:00.478Z,6.13
2023-11-23T05:34:29.387Z,1.70
2023-11-23T05:36:56.950Z,4.32
2023-11-23T05:39:24.529Z,7.50
2023-11-23T05:41:52.137Z,12.00
2023-11-23T05:44:22.343Z,7.40
2023-11-23T05:46:50.901Z,10.63
2023-11-23T05:49:22.237Z,7.43
2023-11-23T05:51:51.079Z,9.18
2023-11-23T05:54:19.046Z,6.40
2023-11-23T05:56:47.622Z,9.18
2023-11-23T05:59:15.390Z,4.40
2023-11-23T06:01:43.017Z,11.20
2023-11-23T06:04:12.696Z,9.00
2023-11-23T06:06:44.084Z,7.13
2023-11-23T06:09:13.913Z,4.45
2023-11-23T06:11:41.441Z,9.90
2023-11-23T06:14:08.936Z,6.50
2023-11-23T06:16:36.519Z,6.55
2023-11-23T06:19:06.538Z,8.95
2023-11-23T06:21:35.316Z,6.85
2023-11-23T06:24:04.894Z,0.20
2023-11-23T06:26:33.736Z,7.90
2023-11-23T06:29:01.833Z,3.78
2023-11-23T06:31:32.631Z,3.95
2023-11-23T06:34:01.026Z,11.38
2023-11-23T06:36:28.556Z,8.55
2023-11-23T06:38:56.648Z,12.63
2023-11-23T06:41:25.989Z,12.38
2023-11-23T06:43:54.976Z,9.65
2023-11-23T06:46:25.985Z,7.28
2023-11-23T06:48:58.010Z,9.85
2023-11-23T06:51:26.814Z,9.93
2023-11-23T06:53:54.307Z,9.57
2023-11-23T06:56:22.652Z,9.65
2023-11-23T06:58:50.225Z,8.88
2023-11-23T07:01:19.904Z,7.97
2023-11-23T07:03:51.887Z,11.23
2023-11-23T07:06:25.053Z,6.13
2023-11-23T07:08:54.905Z,7.10
2023-11-23T07:11:22.934Z,6.78
2023-11-23T07:13:50.923Z,9.93
2023-11-23T07:16:20.986Z,5.05
2023-11-23T07:18:48.609Z,5.28
2023-11-23T07:21:18.934Z,12.20
2023-11-23T07:23:48.433Z,6.95
2023-11-23T07:26:16.162Z,6.78
2023-11-23T07:28:43.641Z,10.23
2023-11-23T07:31:11.234Z,9.15
2023-11-23T07:33:40.258Z,4.55
2023-11-23T07:36:08.849Z,5.10
2023-11-23T07:38:36.376Z,12.52
2023-11-23T07:41:05.588Z,14.80
2023-11-23T07:43:35.273Z,8.65
2023-11-23T07:46:02.939Z,8.48
2023-11-23T07:48:32.220Z,8.43
2023-11-23T07:51:01.346Z,4.57
2023-11-23T07:53:31.612Z,7.28
2023-11-23T07:55:59.405Z,10.07
2023-11-23T07:58:27.108Z,6.38
2023-11-23T08:00:54.746Z,4.43
2023-11-23T08:03:22.525Z,8.95
2023-11-23T08:05:50.210Z,9.80
2023-11-23T08:08:19.273Z,6.65
2023-11-23T08:10:46.918Z,10.93
2023-11-23T08:13:15.959Z,6.53
2023-11-23T08:15:43.595Z,6.72
2023-11-23T08:18:12.494Z,8.63
2023-11-23T08:20:40.054Z,18.08
2023-11-23T08:23:13.533Z,6.10
2023-11-23T08:25:42.496Z,10.50
2023-11-23T08:28:10.019Z,12.75
2023-11-23T08:30:37.604Z,12.70
2023-11-23T08:33:05.168Z,10.50
2023-11-23T08:35:33.133Z,8.65
2023-11-23T08:38:01.901Z,10.75
2023-11-23T08:40:32.036Z,6.45
2023-11-23T08:43:00.988Z,4.03
2023-11-23T08:45:29.791Z,3.55
2023-11-23T08:47:57.569Z,6.65
2023-11-23T08:50:26.341Z,3.13
2023-11-23T08:52:58.643Z,7.05
2023-11-23T08:55:26.232Z,7.88
2023-11-23T08:57:53.741Z,8.10
2023-11-23T09:00:25.083Z,10.77
2023-11-23T09:02:55.546Z,8.73
2023-11-23T09:05:24.982Z,9.07
2023-11-23T09:07:52.653Z,11.55
2023-11-23T09:10:21.192Z,5.07
2023-11-23T09:12:48.987Z,14.32
2023-11-23T09:15:24.225Z,11.77
2023-11-23T09:17:53.401Z,12.57
2023-11-23T09:20:20.933Z,12.00
2023-11-23T09:22:48.457Z,11.60
2023-11-23T09:25:15.977Z,11.25
2023-11-23T09:27:43.526Z,11.30
2023-11-23T09:30:13.136Z,7.00
2023-11-23T09:32:40.760Z,13.05
2023-11-23T09:35:11.478Z,12.13
2023-11-23T09:37:40.917Z,4.50
2023-11-23T09:40:12.626Z,11.57
2023-11-23T09:42:41.200Z,5.60
2023-11-23T09:45:12.356Z,15.23
2023-11-23T09:47:40.608Z,10.13
2023-11-23T09:50:10.688Z,6.90
2023-11-23T09:52:41.257Z,5.00
2023-11-23T09:55:11.615Z,8.48
2023-11-23T09:57:39.284Z,5.57
2023-11-23T10:00:10.702Z,12.98
2023-11-23T10:02:38.774Z,7.03
2023-11-23T10:05:10.139Z,4.85
2023-11-23T10:07:37.952Z,10.73
2023-11-23T10:10:06.806Z,13.27
2023-11-23T10:12:35.070Z,10.40
2023-11-23T10:15:03.912Z,7.45
2023-11-23T10:17:31.728Z,8.95
2023-11-23T10:20:10.225Z,10.13
2023-11-23T10:22:40.266Z,15.27
2023-11-23T10:25:09.188Z,10.73
2023-11-23T10:27:36.911Z,11.13
2023-11-23T10:30:05.930Z,15.20
2023-11-23T10:32:35.530Z,8.70
2023-11-23T10:35:10.651Z,12.90
2023-11-23T10:37:41.684Z,16.00
2023-11-23T10:40:14.024Z,14.57
2023-11-23T10:42:44.283Z,15.88
2023-11-23T10:45:14.015Z,12.43
2023-11-23T10:47:44.452Z,16.33
2023-11-23T10:50:15.567Z,11.57
2023-11-23T10:52:47.012Z,12.45
2023-11-23T10:55:15.155Z,8.40
2023-11-23T10:57:45.963Z,14.15
2023-11-23T11:00:17.598Z,17.67
2023-11-23T11:02:46.961Z,13.05
2023-11-23T11:05:29.363Z,14.13
2023-11-23T11:08:02.812Z,12.75
2023-11-23T11:10:34.566Z,9.50
2023-11-23T11:13:07.890Z,13.00
2023-11-23T11:15:35.914Z,13.55
2023-11-23T11:18:07.824Z,12.30
2023-11-23T11:20:37.582Z,12.25
2023-11-23T11:23:07.088Z,9.38
2023-11-23T11:25:41.388Z,14.38
2023-11-23T11:28:15.440Z,15.55
2023-11-23T11:30:45.075Z,8.98
2023-11-23T11:33:15.635Z,14.35
2023-11-23T11:35:49.491Z,9.40
2023-11-23T11:38:18.369Z,12.80
2023-11-23T11:40:50.942Z,11.18
2023-11-23T11:43:20.882Z,13.00
2023-11-23T11:45:49.280Z,13.80
2023-11-23T11:48:16.917Z,12.07
2023-11-23T11:50:45.139Z,12.80
2023-11-23T11:53:12.758Z,14.23
2023-11-23T11:55:42.881Z,8.40
2023-11-23T11:58:10.426Z,12.93
2023-11-23T12:00:40.131Z,13.55
2023-11-23T12:03:07.768Z,10.80
2023-11-23T12:05:35.321Z,11.23
2023-11-23T12:08:06.782Z,10.88
2023-11-23T12:10:42.929Z,18.02
2023-11-23T12:13:16.211Z,14.18
2023-11-23T12:15:44.896Z,15.27
2023-11-23T12:18:14.376Z,15.27
2023-11-23T12:20:42.542Z,12.68
2023-11-23T12:23:10.088Z,12.40
2023-11-23T12:25:37.851Z,7.88
2023-11-23T12:28:14.896Z,16.52
2023-11-23T12:30:42.813Z,19.08
2023-11-23T12:33:10.379Z,14.27
2023-11-23T12:35:38.018Z,15.68
2023-11-23T12:38:05.596Z,12.23
2023-11-23T12:40:33.082Z,13.63
2023-11-23T12:43:00.617Z,12.25
2023-11-23T12:45:29.718Z,16.73
2023-11-23T12:47:57.711Z,11.55
2023-11-23T12:50:25.237Z,13.60
2023-11-23T12:52:53.019Z,18.23
2023-11-23T12:55:21.500Z,14.10
2023-11-23T12:57:49.768Z,12.00
2023-11-23T13:00:22.663Z,10.85
2023-11-23T13:02:51.540Z,12.32
2023-11-23T13:05:19.782Z,15.63
2023-11-23T13:07:47.336Z,12.50
2023-11-23T13:10:21.127Z,17.67
2023-11-23T13:12:51.516Z,9.82
2023-11-23T13:15:20.818Z,14.90
2023-11-23T13:17:50.686Z,12.57
2023-11-23T13:20:21.845Z,10.27
2023-11-23T13:22:49.397Z,14.73
2023-11-23T13:25:18.445Z,15.73
2023-11-23T13:27:46.002Z,15.25
2023-11-23T13:30:15.902Z,14.52
2023-11-23T13:32:44.258Z,10.93
2023-11-23T13:35:12.234Z,13.95
2023-11-23T13:37:41.106Z,16.95
2023-11-23T13:40:11.143Z,12.18
2023-11-23T13:42:38.732Z,7.00
2023-11-23T13:45:09.530Z,14.10
2023-11-23T13:47:37.831Z,6.38
2023-11-23T13:50:10.193Z,10.82
2023-11-23T13:52:38.056Z,9.60
2023-11-23T13:55:08.143Z,16.63
2023-11-23T13:57:35.999Z,10.35
2023-11-23T14:00:12.642Z,14.00
2023-11-23T14:02:41.227Z,12.43
2023-11-23T14:05:10.801Z,12.57
2023-11-23T14:07:39.290Z,10.57
2023-11-23T14:10:09.494Z,15.45
2023-11-23T14:12:37.437Z,12.75
2023-11-23T14:15:05.773Z,8.20
2023-11-23T14:17:33.665Z,9.65
2023-11-23T14:20:02.108Z,12.18
2023-11-23T14:22:30.657Z,6.22
2023-11-23T14:25:00.372Z,8.65
2023-11-23T14:27:30.106Z,13.15
2023-11-23T14:29:57.760Z,14.15
2023-11-23T14:32:25.293Z,12.02
2023-11-23T14:34:52.977Z,13.07
2023-11-23T14:37:21.898Z,12.43
2023-11-23T14:39:49.386Z,6.90
2023-11-23T14:42:17.994Z,11.75
2023-11-23T14:44:49.729Z,10.35
2023-11-23T14:47:20.910Z,11.80
2023-11-23T14:49:49.797Z,4.13
2023-11-23T14:52:20.757Z,12.32
2023-11-23T14:54:49.385Z,7.20
2023-11-23T14:57:17.169Z,8.80
2023-11-23T14:59:44.657Z,5.97
2023-11-23T15:02:14.242Z,6.47
2023-11-23T15:04:43.407Z,5.38
2023-11-23T15:07:10.887Z,12.10
2023-11-23T15:09:38.377Z,7.07
2023-11-23T15:12:07.506Z,8.70
2023-11-23T15:14:37.613Z,8.30
2023-11-23T15:17:05.658Z,5.10
2023-11-23T15:19:35.896Z,9.88
2023-11-23T15:22:06.656Z,7.05
2023-11-23T15:24:35.029Z,6.32
2023-11-23T15:27:03.559Z,9.40
2023-11-23T15:29:31.131Z,6.25
2023-11-23T15:32:03.409Z,7.38
2023-11-23T15:34:32.494Z,6.38
2023-11-23T15:37:01.968Z,6.93
2023-11-23T15:39:30.344Z,7.05
2023-11-23T15:41:58.626Z,7.03
2023-11-23T15:44:26.366Z,2.08
2023-11-23T15:46:54.352Z,3.90
2023-11-23T15:49:21.861Z,3.72
2023-11-23T15:51:49.336Z,3.78
2023-11-23T15:54:20.135Z,5.15
2023-11-23T15:56:47.644Z,5.75
2023-11-23T15:59:15.135Z,7.95
2023-11-23T16:01:42.672Z,3.17
2023-11-23T16:04:11.319Z,5.28
2023-11-23T16:06:40.080Z,5.22
2023-11-23T16:09:10.125Z,8.02
2023-11-23T16:11:40.126Z,6.18
2023-11-23T16:14:09.904Z,5.05
2023-11-23T16:16:39.263Z,5.55
2023-11-23T16:19:07.346Z,5.53
2023-11-23T16:21:35.925Z,8.85
2023-11-23T16:24:04.281Z,6.00
2023-11-23T16:26:32.203Z,6.65
2023-11-23T16:29:02.629Z,6.30
2023-11-23T16:31:31.863Z,5.35
2023-11-23T16:33:59.464Z,11.18
2023-11-23T16:36:33.721Z,5.47
2023-11-23T16:39:07.748Z,6.70
2023-11-23T16:41:35.317Z,5.93
2023-11-23T16:44:05.338Z,9.98
2023-11-23T16:46:33.278Z,4.88
2023-11-23T16:49:01.713Z,6.25
2023-11-23T16:51:30.121Z,3.75
2023-11-23T16:53:57.662Z,4.18
2023-11-23T16:56:25.197Z,5.47
2023-11-23T16:58:52.685Z,6.78
2023-11-23T17:01:21.590Z,4.00
2023-11-23T17:03:51.465Z,2.50
2023-11-23T17:06:19.273Z,4.65
2023-11-23T17:08:48.215Z,4.15
2023-11-23T17:11:17.421Z,2.90
2023-11-23T17:13:45.217Z,0.55
2023-11-23T17:16:12.923Z,5.63
2023-11-23T17:18:42.477Z,2.75
2023-11-23T17:21:10.547Z,3.67
2023-11-23T17:23:38.392Z,3.53
2023-11-23T17:26:10.000Z,5.35
2023-11-23T17:28:37.546Z,2.05
2023-11-23T17:31:06.360Z,3.95
2023-11-23T17:33:34.058Z,4.13
2023-11-23T17:36:03.510Z,2.60
2023-11-23T17:38:30.983Z,2.55
2023-11-23T17:40:58.529Z,4.22
2023-11-23T17:43:26.091Z,2.90
2023-11-23T17:45:53.983Z,2.22
2023-11-23T17:48:23.290Z,2.80
2023-11-23T17:50:52.003Z,2.35
2023-11-23T17:53:21.181Z,3.47
2023-11-23T17:55:48.649Z,3.83
2023-11-23T17:58:16.157Z,4.82
2023-11-23T18:00:43.740Z,2.80
2023-11-23T18:03:12.249Z,1.90
2023-11-23T18:05:43.565Z,3.63
2023-11-23T18:08:11.269Z,1.65
2023-11-23T18:10:40.261Z,2.30
2023-11-23T18:13:07.866Z,1.48
2023-11-23T18:15:35.898Z,3.60
2023-11-23T18:18:07.587Z,3.58
2023-11-23T18:20:39.684Z,3.03
2023-11-23T18:23:07.921Z,1.77
2023-11-23T18:25:37.084Z,5.38
2023-11-23T18:28:05.988Z,3.35
2023-11-23T18:30:34.797Z,2.22
2023-11-23T18:33:06.646Z,1.75
2023-11-23T18:35:36.517Z,2.28
2023-11-23T18:38:06.489Z,2.30
2023-11-23T18:40:34.462Z,2.30
2023-11-23T18:43:04.531Z,3.40
2023-11-23T18:45:33.998Z,2.20
2023-11-23T18:48:03.306Z,1.25
2023-11-23T18:50:32.223Z,1.05
2023-11-23T18:53:01.031Z,1.77
2023-11-23T18:55:28.768Z,1.35
2023-11-23T18:57:57.148Z,0.45
2023-11-23T19:00:25.209Z,2.25
2023-11-23T19:02:58.411Z,1.45
2023-11-23T19:05:28.042Z,0.70
2023-11-23T19:07:55.898Z,1.38
2023-11-23T19:10:25.462Z,1.55
2023-11-23T19:13:03.292Z,2.20
2023-11-23T19:15:33.770Z,2.30
2023-11-23T19:18:04.546Z,2.10
2023-11-23T19:20:35.093Z,2.53
2023-11-23T19:23:03.425Z,2.55
2023-11-23T19:25:34.213Z,1.48
2023-11-23T19:28:06.625Z,1.77
2023-11-23T19:30:34.880Z,2.85
2023-11-23T19:33:08.207Z,1.85
2023-11-23T19:35:36.544Z,1.20
2023-11-23T19:38:05.248Z,3.17
2023-11-23T19:40:33.837Z,1.65
2023-11-23T19:43:01.935Z,2.40
2023-11-23T19:45:30.256Z,1.52
2023-11-23T19:47:59.477Z,1.40
2023-11-23T19:50:29.641Z,2.15
2023-11-23T19:52:58.624Z,1.25
2023-11-23T19:55:26.172Z,1.10
2023-11-23T19:57:53.808Z,2.63
2023-11-23T20:00:21.484Z,1.38
2023-11-23T20:02:49.528Z,1.58
2023-11-23T20:05:18.023Z,1.23
2023-11-23T20:07:46.906Z,1.63
2023-11-23T20:10:15.078Z,1.48
2023-11-23T20:12:44.191Z,1.77
2023-11-23T20:15:12.141Z,1.58
2023-11-23T20:17:39.771Z,1.40
2023-11-23T20:20:10.889Z,1.42
2023-11-23T20:22:38.441Z,1.13
2023-11-23T20:25:09.163Z,0.68
2023-11-23T20:27:37.467Z,0.68
2023-11-23T20:30:09.429Z,0.20
2023-11-23T20:32:37.196Z,0.20
2023-11-23T20:35:07.564Z,0.60
2023-11-23T20:37:35.856Z,0.80
2023-11-23T20:40:03.458Z,0.75
2023-11-23T20:42:32.562Z,0.68
2023-11-23T20:45:00.275Z,0.40
2023-11-23T20:47:27.825Z,0.63
2023-11-23T20:49:55.305Z,0.70
2023-11-23T20:52:25.967Z,0.52
2023-11-23T20:54:55.225Z,0.90
2023-11-23T20:57:23.634Z,0.63
2023-11-23T20:59:54.190Z,1.20
2023-11-23T21:02:22.300Z,0.63
2023-11-23T21:04:50.621Z,0.40
2023-11-23T21:07:19.289Z,1.35
2023-11-23T21:09:49.322Z,0.52
2023-11-23T21:12:24.947Z,1.17
2023-11-23T21:14:56.533Z,1.17
2023-11-23T21:17:24.160Z,0.50
2023-11-23T21:19:52.013Z,0.47
2023-11-23T21:22:19.524Z,0.80
2023-11-23T21:24:47.027Z,1.60
2023-11-23T21:27:14.701Z,1.15
2023-11-23T21:29:42.268Z,0.60
2023-11-23T21:32:15.955Z,1.23
2023-11-23T21:34:43.638Z,0.65
2023-11-23T21:37:11.189Z,0.75
2023-11-23T21:39:38.709Z,0.25
2023-11-23T21:42:06.980Z,1.23
2023-11-23T21:44:36.264Z,1.45
2023-11-23T21:47:04.152Z,2.20
2023-11-23T21:49:33.005Z,0.63
2023-11-23T21:52:00.603Z,0.47
2023-11-23T21:54:30.159Z,0.80
2023-11-23T21:56:58.882Z,0.55
2023-11-23T21:59:26.692Z,0.95
2023-11-23T22:01:57.304Z,1.23
2023-11-23T22:04:24.909Z,1.50
2023-11-23T22:06:56.359Z,0.90
2023-11-23T22:09:25.864Z,1.35
2023-11-23T22:11:53.998Z,0.55
2023-11-23T22:14:21.771Z,1.85
2023-11-23T22:16:49.706Z,1.15
2023-11-23T22:19:18.793Z,1.08
2023-11-23T22:21:47.080Z,1.55
2023-11-23T22:24:17.575Z,1.75
2023-11-23T22:26:45.754Z,0.60
2023-11-23T22:29:15.086Z,1.33
2023-11-23T22:31:44.163Z,3.35
2023-11-23T22:34:12.977Z,1.52
2023-11-23T22:36:41.465Z,1.48
2023-11-23T22:39:10.242Z,2.25
2023-11-23T22:41:40.024Z,2.72
2023-11-23T22:44:10.460Z,1.20
2023-11-23T22:46:39.033Z,0.55
2023-11-23T22:49:07.856Z,0.93
2023-11-23T22:51:35.401Z,1.08
2023-11-23T22:54:02.955Z,1.17
2023-11-23T22:56:30.507Z,1.15
2023-11-23T22:59:00.413Z,1.35
2023-11-23T23:01:28.949Z,1.65
2023-11-23T23:03:56.670Z,0.10
2023-11-23T23:06:24.226Z,0.88
2023-11-23T23:08:53.624Z,0.90
2023-11-23T23:11:21.148Z,0.73
2023-11-23T23:13:48.768Z,1.02
2023-11-23T23:16:19.265Z,0.90
2023-11-23T23:18:47.954Z,0.90
2023-11-23T23:21:15.522Z,0.75
2023-11-23T23:23:43.018Z,0.30
2023-11-23T23:26:10.877Z,1.05
2023-11-23T23:28:38.403Z,2.08
2023-11-23T23:31:06.685Z,0.95
2023-11-23T23:33:36.264Z,1.05
2023-11-23T23:36:05.231Z,2.30
2023-11-23T23:38:33.551Z,2.17
2023-11-23T23:41:01.043Z,0.52
2023-11-23T23:43:28.513Z,1.08
2023-11-23T23:45:56.112Z,0.45
2023-11-23T23:48:23.768Z,0.65
2023-11-23T23:50:52.627Z,0.40
2023-11-23T23:53:20.141Z,0.57
2023-11-23T23:55:49.747Z,1.55
2023-11-23T23:58:17.443Z,2.08
